createdAt,value
2023-03-02T00:00:50.177Z,-0.45
2023-03-02T00:02:04.309Z,-0.45
2023-03-02T00:03:07.508Z,-0.46
2023-03-02T00:04:16.305Z,-0.46
2023-03-02T00:05:19.281Z,-0.46
2023-03-02T00:06:22.173Z,-0.47
2023-03-02T00:07:32.534Z,-0.46
2023-03-02T00:08:36.703Z,-0.46
2023-03-02T00:09:40.105Z,-0.47
2023-03-02T00:10:43.055Z,-0.48
2023-03-02T00:11:46.127Z,-0.48
2023-03-02T00:12:49.120Z,-0.47
2023-03-02T00:13:51.976Z,-0.48
2023-03-02T00:14:55.187Z,-0.49
2023-03-02T00:15:58.308Z,-0.49
2023-03-02T00:17:02.891Z,-0.50
2023-03-02T00:18:05.995Z,-0.51
2023-03-02T00:19:08.914Z,-0.52
2023-03-02T00:20:12.232Z,-0.54
2023-03-02T00:21:15.138Z,-0.55
2023-03-02T00:22:19.211Z,-0.55
2023-03-02T00:23:22.440Z,-0.55
2023-03-02T00:24:25.377Z,-0.55
2023-03-02T00:25:28.861Z,-0.55
2023-03-02T00:26:36.196Z,-0.55
2023-03-02T00:27:39.409Z,-0.55
2023-03-02T00:28:42.626Z,-0.54
2023-03-02T00:29:45.754Z,-0.53
2023-03-02T00:30:48.624Z,-0.53
2023-03-02T00:31:51.691Z,-0.53
2023-03-02T00:32:54.807Z,-0.54
2023-03-02T00:33:57.767Z,-0.54
2023-03-02T00:35:00.789Z,-0.53
2023-03-02T00:36:04.210Z,-0.53
2023-03-02T00:37:07.084Z,-0.53
2023-03-02T00:38:10.113Z,-0.54
2023-03-02T00:39:12.958Z,-0.54
2023-03-02T00:40:16.220Z,-0.53
2023-03-02T00:41:21.693Z,-0.52
2023-03-02T00:42:24.602Z,-0.52
2023-03-02T00:43:28.232Z,-0.52
2023-03-02T00:44:31.231Z,-0.53
2023-03-02T00:45:34.084Z,-0.52
2023-03-02T00:46:37.472Z,-0.53
2023-03-02T00:47:41.536Z,-0.53
2023-03-02T00:48:45.759Z,-0.53
2023-03-02T00:49:49.663Z,-0.53
2023-03-02T00:50:52.554Z,-0.54
2023-03-02T00:51:55.471Z,-0.54
2023-03-02T00:52:58.472Z,-0.54
2023-03-02T00:54:02.956Z,-0.54
2023-03-02T00:55:06.488Z,-0.55
2023-03-02T00:56:10.363Z,-0.55
2023-03-02T00:57:13.654Z,-0.55
2023-03-02T00:58:16.678Z,-0.56
2023-03-02T00:59:28.490Z,-0.57
2023-03-02T01:00:58.803Z,-0.61
2023-03-02T01:02:02.498Z,-0.62
2023-03-02T01:03:06.549Z,-0.64
2023-03-02T01:04:09.490Z,-0.67
2023-03-02T01:05:12.841Z,-0.67
2023-03-02T01:06:19.099Z,-0.69
2023-03-02T01:07:25.004Z,-0.73
2023-03-02T01:08:28.122Z,-0.78
2023-03-02T01:09:31.985Z,-0.76
2023-03-02T01:10:34.938Z,-0.77
2023-03-02T01:11:38.333Z,-0.77
2023-03-02T01:12:41.207Z,-0.77
2023-03-02T01:13:44.828Z,-0.79
2023-03-02T01:14:49.202Z,-0.81
2023-03-02T01:16:03.636Z,-0.81
2023-03-02T01:17:07.546Z,-0.81
2023-03-02T01:18:12.227Z,-0.82
2023-03-02T01:19:16.696Z,-0.82
2023-03-02T01:20:19.851Z,-0.82
2023-03-02T01:21:22.716Z,-0.82
2023-03-02T01:22:26.416Z,-0.83
2023-03-02T01:23:29.298Z,-0.82
2023-03-02T01:24:32.465Z,-0.83
2023-03-02T01:25:35.310Z,-0.83
2023-03-02T01:26:38.566Z,-0.83
2023-03-02T01:27:41.423Z,-0.84
2023-03-02T01:28:44.270Z,-0.84
2023-03-02T01:29:47.467Z,-0.85
2023-03-02T01:30:50.365Z,-0.84
2023-03-02T01:31:53.314Z,-0.86
2023-03-02T01:32:56.368Z,-0.89
2023-03-02T01:33:59.223Z,-0.93
2023-03-02T01:35:02.073Z,-0.97
2023-03-02T01:36:05.336Z,-1.00
2023-03-02T01:37:08.212Z,-1.03
2023-03-02T01:38:11.455Z,-1.05
2023-03-02T01:39:17.856Z,-1.06
2023-03-02T01:40:21.062Z,-1.07
2023-03-02T01:41:24.154Z,-1.08
2023-03-02T01:42:27.113Z,-1.07
2023-03-02T01:43:30.067Z,-1.07
2023-03-02T01:44:48.092Z,-1.06
2023-03-02T01:45:53.441Z,-1.06
2023-03-02T01:47:27.086Z,-1.07
2023-03-02T01:48:53.532Z,-1.08
2023-03-02T01:50:12.111Z,-1.08
2023-03-02T01:51:20.449Z,-1.09
2023-03-02T01:52:24.203Z,-1.09
2023-03-02T01:53:31.424Z,-1.10
2023-03-02T01:54:35.488Z,-1.11
2023-03-02T01:55:39.757Z,-1.14
2023-03-02T01:56:45.569Z,-1.16
2023-03-02T01:57:52.068Z,-1.17
2023-03-02T01:59:03.503Z,-1.18
2023-03-02T02:00:12.101Z,-1.19
2023-03-02T02:01:18.033Z,-1.19
2023-03-02T02:02:21.126Z,-1.20
2023-03-02T02:03:28.308Z,-1.20
2023-03-02T02:04:34.598Z,-1.21
2023-03-02T02:05:41.229Z,-1.21
2023-03-02T02:06:52.894Z,-1.22
2023-03-02T02:07:56.055Z,-1.23
2023-03-02T02:09:01.341Z,-1.23
2023-03-02T02:10:05.383Z,-1.24
2023-03-02T02:11:08.445Z,-1.28
2023-03-02T02:12:16.948Z,-1.31
2023-03-02T02:13:19.908Z,-1.32
2023-03-02T02:14:23.957Z,-1.32
2023-03-02T02:15:26.905Z,-1.32
2023-03-02T02:16:33.494Z,-1.32
2023-03-02T02:17:36.720Z,-1.31
2023-03-02T02:18:41.108Z,-1.30
2023-03-02T02:19:50.110Z,-1.28
2023-03-02T02:20:54.972Z,-1.24
2023-03-02T02:21:57.914Z,-1.21
2023-03-02T02:23:35.463Z,-1.18
2023-03-02T02:24:58.696Z,-1.14
2023-03-02T02:26:07.790Z,-1.10
2023-03-02T02:27:11.566Z,-1.07
2023-03-02T02:28:20.832Z,-1.05
2023-03-02T02:29:45.654Z,-1.02
2023-03-02T02:31:03.758Z,-0.98
2023-03-02T02:32:20.444Z,-0.96
2023-03-02T02:33:25.556Z,-0.92
2023-03-02T02:34:45.048Z,-0.88
2023-03-02T02:35:52.907Z,-0.82
2023-03-02T02:37:01.340Z,-0.78
2023-03-02T02:38:07.973Z,-0.75
2023-03-02T02:39:18.671Z,-0.72
2023-03-02T02:40:44.400Z,-0.67
2023-03-02T02:41:51.713Z,-0.59
2023-03-02T02:42:54.850Z,-0.53
2023-03-02T02:43:58.144Z,-0.48
2023-03-02T02:45:06.584Z,-0.43
2023-03-02T02:46:11.825Z,-0.39
2023-03-02T02:47:20.484Z,-0.33
2023-03-02T02:48:25.456Z,-0.27
2023-03-02T02:49:33.592Z,-0.23
2023-03-02T02:50:38.193Z,-0.18
2023-03-02T02:51:41.796Z,-0.13
2023-03-02T02:52:47.516Z,-0.10
2023-03-02T02:54:00.254Z,-0.07
2023-03-02T02:55:06.640Z,-0.02
2023-03-02T02:56:11.941Z,0.02
2023-03-02T02:57:18.481Z,0.08
2023-03-02T02:58:45.424Z,0.13
2023-03-02T02:59:51.284Z,0.18
2023-03-02T03:00:54.938Z,0.20
2023-03-02T03:02:00.307Z,0.24
2023-03-02T03:03:29.463Z,0.26
2023-03-02T03:04:33.648Z,0.28
2023-03-02T03:05:37.616Z,0.30
2023-03-02T03:07:09.956Z,0.31
2023-03-02T03:08:59.696Z,0.34
2023-03-02T03:10:23.475Z,0.37
2023-03-02T03:11:29.962Z,0.38
2023-03-02T03:12:34.332Z,0.40
2023-03-02T03:13:41.226Z,0.41
2023-03-02T03:14:44.729Z,0.42
2023-03-02T03:15:48.385Z,0.44
2023-03-02T03:16:51.804Z,0.45
2023-03-02T03:17:59.051Z,0.47
2023-03-02T03:19:12.006Z,0.49
2023-03-02T03:20:16.834Z,0.51
2023-03-02T03:21:19.981Z,0.53
2023-03-02T03:22:22.851Z,0.54
2023-03-02T03:23:26.691Z,0.56
2023-03-02T03:24:31.571Z,0.58
2023-03-02T03:25:35.152Z,0.60
2023-03-02T03:26:38.436Z,0.62
2023-03-02T03:27:43.031Z,0.63
2023-03-02T03:28:46.286Z,0.66
2023-03-02T03:29:49.367Z,0.67
2023-03-02T03:30:53.863Z,0.68
2023-03-02T03:31:58.149Z,0.68
2023-03-02T03:33:01.616Z,0.69
2023-03-02T03:34:05.634Z,0.70
2023-03-02T03:35:12.465Z,0.71
2023-03-02T03:36:15.724Z,0.72
2023-03-02T03:37:20.320Z,0.74
2023-03-02T03:38:23.296Z,0.76
2023-03-02T03:39:27.364Z,0.77
2023-03-02T03:40:34.338Z,0.78
2023-03-02T03:41:37.860Z,0.80
2023-03-02T03:42:40.855Z,0.81
2023-03-02T03:43:43.861Z,0.82
2023-03-02T03:44:47.607Z,0.83
2023-03-02T03:45:52.139Z,0.83
2023-03-02T03:46:56.063Z,0.84
2023-03-02T03:47:59.239Z,0.84
2023-03-02T03:49:02.760Z,0.85
2023-03-02T03:50:06.197Z,0.86
2023-03-02T03:51:10.235Z,0.87
2023-03-02T03:52:13.192Z,0.89
2023-03-02T03:53:16.094Z,0.90
2023-03-02T03:54:19.214Z,0.91
2023-03-02T03:55:22.142Z,0.92
2023-03-02T03:56:26.982Z,0.93
2023-03-02T03:57:29.927Z,0.93
2023-03-02T03:58:33.342Z,0.95
2023-03-02T03:59:36.190Z,0.96
2023-03-02T04:00:39.485Z,0.96
2023-03-02T04:01:56.506Z,0.97
2023-03-02T04:03:01.451Z,0.97
2023-03-02T04:04:08.144Z,0.98
2023-03-02T04:05:11.137Z,0.99
2023-03-02T04:06:19.009Z,1.00
2023-03-02T04:07:22.501Z,1.02
2023-03-02T04:08:25.449Z,1.03
2023-03-02T04:09:29.380Z,1.04
2023-03-02T04:10:32.577Z,1.04
2023-03-02T04:11:38.729Z,1.06
2023-03-02T04:12:42.456Z,1.07
2023-03-02T04:13:46.313Z,1.07
2023-03-02T04:14:49.180Z,1.09
2023-03-02T04:15:52.185Z,1.08
2023-03-02T04:16:55.387Z,1.08
2023-03-02T04:17:59.785Z,1.09
2023-03-02T04:19:04.124Z,1.10
2023-03-02T04:20:09.075Z,1.10
2023-03-02T04:21:14.024Z,1.11
2023-03-02T04:22:17.418Z,1.12
2023-03-02T04:23:20.630Z,1.12
2023-03-02T04:24:24.700Z,1.12
2023-03-02T04:25:31.097Z,1.13
2023-03-02T04:26:41.028Z,1.12
2023-03-02T04:27:44.308Z,1.13
2023-03-02T04:28:50.910Z,1.14
2023-03-02T04:29:54.624Z,1.15
2023-03-02T04:30:57.568Z,1.15
2023-03-02T04:32:00.860Z,1.16
2023-03-02T04:33:04.490Z,1.17
2023-03-02T04:34:09.085Z,1.18
2023-03-02T04:35:14.922Z,1.19
2023-03-02T04:36:19.625Z,1.20
2023-03-02T04:37:24.137Z,1.20
2023-03-02T04:38:29.779Z,1.21
2023-03-02T04:39:33.028Z,1.22
2023-03-02T04:40:36.117Z,1.23
2023-03-02T04:41:38.936Z,1.24
2023-03-02T04:42:41.936Z,1.25
2023-03-02T04:43:45.332Z,1.25
2023-03-02T04:44:49.060Z,1.26
2023-03-02T04:45:53.405Z,1.26
2023-03-02T04:46:56.373Z,1.27
2023-03-02T04:47:59.578Z,1.27
2023-03-02T04:49:02.622Z,1.27
2023-03-02T04:50:06.168Z,1.28
2023-03-02T04:51:19.506Z,1.28
2023-03-02T04:52:22.887Z,1.27
2023-03-02T04:53:25.799Z,1.27
2023-03-02T04:54:28.890Z,1.27
2023-03-02T04:55:31.758Z,1.27
2023-03-02T04:56:34.997Z,1.27
2023-03-02T04:57:38.029Z,1.27
2023-03-02T04:58:40.901Z,1.27
2023-03-02T04:59:43.884Z,1.27
2023-03-02T05:00:46.852Z,1.27
2023-03-02T05:01:50.573Z,1.27
2023-03-02T05:02:53.735Z,1.26
2023-03-02T05:03:56.652Z,1.26
2023-03-02T05:04:59.587Z,1.26
2023-03-02T05:06:05.369Z,1.27
2023-03-02T05:07:08.651Z,1.27
2023-03-02T05:08:11.578Z,1.28
2023-03-02T05:09:15.261Z,1.29
2023-03-02T05:10:20.037Z,1.29
2023-03-02T05:11:22.947Z,1.30
2023-03-02T05:12:25.870Z,1.30
2023-03-02T05:13:29.303Z,1.29
2023-03-02T05:14:32.970Z,1.29
2023-03-02T05:15:39.053Z,1.30
2023-03-02T05:16:42.448Z,1.31
2023-03-02T05:17:45.319Z,1.31
2023-03-02T05:18:49.039Z,1.32
2023-03-02T05:19:51.910Z,1.31
2023-03-02T05:20:55.482Z,1.34
2023-03-02T05:21:58.543Z,1.34
2023-03-02T05:23:04.073Z,1.35
2023-03-02T05:24:08.099Z,1.36
2023-03-02T05:25:11.820Z,1.35
2023-03-02T05:26:14.814Z,1.36
2023-03-02T05:27:17.753Z,1.36
2023-03-02T05:28:21.840Z,1.36
2023-03-02T05:29:25.099Z,1.37
2023-03-02T05:30:28.934Z,1.37
2023-03-02T05:31:38.009Z,1.38
2023-03-02T05:32:41.174Z,1.38
2023-03-02T05:33:44.114Z,1.38
2023-03-02T05:34:47.086Z,1.39
2023-03-02T05:35:50.008Z,1.39
2023-03-02T05:36:52.858Z,1.39
2023-03-02T05:37:55.810Z,1.41
2023-03-02T05:38:58.975Z,1.41
2023-03-02T05:40:02.361Z,1.41
2023-03-02T05:41:05.902Z,1.42
2023-03-02T05:42:10.350Z,1.41
2023-03-02T05:43:18.997Z,1.41
2023-03-02T05:44:21.890Z,1.40
2023-03-02T05:45:31.294Z,1.39
2023-03-02T05:46:34.612Z,1.40
2023-03-02T05:47:37.694Z,1.40
2023-03-02T05:48:42.346Z,1.41
2023-03-02T05:49:45.168Z,1.43
2023-03-02T05:50:48.076Z,1.43
2023-03-02T05:51:51.300Z,1.44
2023-03-02T05:52:54.231Z,1.45
2023-03-02T05:53:57.070Z,1.45
2023-03-02T05:54:59.940Z,1.46
2023-03-02T05:56:03.596Z,1.46
2023-03-02T05:57:07.428Z,1.46
2023-03-02T05:58:14.675Z,1.47
2023-03-02T05:59:17.525Z,1.46
2023-03-02T06:00:20.850Z,1.46
2023-03-02T06:01:23.747Z,1.45
2023-03-02T06:02:26.580Z,1.46
2023-03-02T06:03:29.708Z,1.45
2023-03-02T06:04:32.710Z,1.46
2023-03-02T06:05:35.815Z,1.47
2023-03-02T06:06:39.180Z,1.48
2023-03-02T06:07:43.167Z,1.49
2023-03-02T06:08:46.344Z,1.51
2023-03-02T06:09:51.056Z,1.51
2023-03-02T06:10:57.738Z,1.53
2023-03-02T06:12:00.793Z,1.53
2023-03-02T06:13:03.748Z,1.55
2023-03-02T06:14:07.538Z,1.55
2023-03-02T06:15:10.679Z,1.56
2023-03-02T06:16:13.699Z,1.56
2023-03-02T06:17:16.740Z,1.56
2023-03-02T06:18:19.617Z,1.57
2023-03-02T06:19:22.471Z,1.57
2023-03-02T06:20:25.931Z,1.58
2023-03-02T06:21:28.829Z,1.58
2023-03-02T06:22:31.771Z,1.59
2023-03-02T06:23:34.633Z,1.60
2023-03-02T06:24:37.598Z,1.61
2023-03-02T06:25:43.754Z,1.61
2023-03-02T06:26:46.637Z,1.60
2023-03-02T06:27:53.949Z,1.59
2023-03-02T06:28:56.845Z,1.59
2023-03-02T06:29:59.788Z,1.60
2023-03-02T06:31:02.652Z,1.60
2023-03-02T06:32:06.389Z,1.60
2023-03-02T06:33:09.976Z,1.60
2023-03-02T06:34:12.876Z,1.57
2023-03-02T06:35:16.015Z,1.57
2023-03-02T06:36:19.304Z,1.59
2023-03-02T06:37:22.236Z,1.59
2023-03-02T06:38:25.128Z,1.58
2023-03-02T06:39:28.129Z,1.63
2023-03-02T06:40:31.475Z,1.64
2023-03-02T06:41:34.599Z,1.64
2023-03-02T06:42:38.843Z,1.63
2023-03-02T06:43:42.131Z,1.67
2023-03-02T06:44:44.965Z,1.65
2023-03-02T06:45:47.892Z,1.68
2023-03-02T06:46:50.781Z,1.66
2023-03-02T06:47:54.026Z,1.67
2023-03-02T06:48:56.858Z,1.70
2023-03-02T06:50:00.372Z,1.68
2023-03-02T06:51:03.323Z,1.72
2023-03-02T06:52:07.357Z,1.74
2023-03-02T06:53:10.504Z,1.70
2023-03-02T06:54:13.830Z,1.71
2023-03-02T06:55:16.805Z,1.74
2023-03-02T06:56:19.653Z,1.73
2023-03-02T06:57:22.866Z,1.76
2023-03-02T06:58:25.746Z,1.73
2023-03-02T06:59:28.854Z,1.73
2023-03-02T07:00:31.736Z,1.77
2023-03-02T07:01:36.407Z,1.76
2023-03-02T07:02:39.449Z,1.77
2023-03-02T07:03:42.749Z,1.74
2023-03-02T07:04:45.628Z,1.77
2023-03-02T07:05:49.209Z,1.76
2023-03-02T07:06:52.100Z,1.78
2023-03-02T07:07:55.021Z,1.81
2023-03-02T07:08:57.952Z,1.82
2023-03-02T07:10:00.834Z,1.80
2023-03-02T07:11:11.996Z,1.82
2023-03-02T07:12:14.891Z,1.84
2023-03-02T07:13:18.091Z,1.84
2023-03-02T07:14:20.946Z,1.84
2023-03-02T07:15:24.361Z,1.88
2023-03-02T07:16:27.642Z,1.86
2023-03-02T07:17:30.653Z,1.85
2023-03-02T07:18:33.482Z,1.84
2023-03-02T07:19:40.838Z,1.84
2023-03-02T07:20:43.856Z,1.89
2023-03-02T07:21:46.736Z,1.86
2023-03-02T07:22:49.832Z,1.90
2023-03-02T07:23:52.926Z,1.90
2023-03-02T07:24:55.776Z,1.88
2023-03-02T07:26:02.016Z,1.93
2023-03-02T07:27:04.869Z,1.91
2023-03-02T07:28:07.709Z,1.93
2023-03-02T07:29:10.578Z,1.97
2023-03-02T07:30:14.982Z,1.96
2023-03-02T07:31:17.938Z,1.96
2023-03-02T07:32:20.944Z,1.96
2023-03-02T07:33:23.793Z,1.98
2023-03-02T07:34:27.470Z,1.97
2023-03-02T07:35:30.384Z,1.98
2023-03-02T07:36:33.266Z,1.98
2023-03-02T07:37:36.151Z,1.99
2023-03-02T07:38:42.494Z,1.99
2023-03-02T07:39:45.340Z,2.03
2023-03-02T07:40:48.529Z,2.04
2023-03-02T07:41:51.435Z,2.03
2023-03-02T07:42:56.483Z,2.04
2023-03-02T07:43:59.365Z,2.05
2023-03-02T07:45:04.784Z,2.06
2023-03-02T07:46:07.922Z,2.06
2023-03-02T07:47:11.095Z,2.06
2023-03-02T07:48:13.971Z,2.08
2023-03-02T07:49:16.952Z,2.08
2023-03-02T07:50:20.038Z,2.08
2023-03-02T07:51:22.934Z,2.09
2023-03-02T07:52:25.871Z,2.10
2023-03-02T07:53:29.386Z,2.10
2023-03-02T07:54:32.508Z,2.12
2023-03-02T07:55:35.478Z,2.13
2023-03-02T07:56:38.809Z,2.12
2023-03-02T07:57:41.687Z,2.14
2023-03-02T07:58:44.574Z,2.14
2023-03-02T07:59:47.479Z,2.16
2023-03-02T08:00:50.429Z,2.18
2023-03-02T08:01:53.293Z,2.20
2023-03-02T08:02:56.230Z,2.21
2023-03-02T08:03:59.163Z,2.22
2023-03-02T08:05:02.161Z,2.22
2023-03-02T08:06:11.654Z,2.23
2023-03-02T08:07:14.554Z,2.22
2023-03-02T08:08:17.474Z,2.23
2023-03-02T08:09:20.354Z,2.25
2023-03-02T08:10:23.539Z,2.28
2023-03-02T08:11:26.369Z,2.30
2023-03-02T08:12:29.732Z,2.31
2023-03-02T08:13:32.622Z,2.32
2023-03-02T08:14:35.683Z,2.34
2023-03-02T08:15:38.534Z,2.36
2023-03-02T08:16:41.485Z,2.37
2023-03-02T08:17:45.051Z,2.38
2023-03-02T08:18:48.024Z,2.40
2023-03-02T08:19:51.073Z,2.41
2023-03-02T08:20:54.609Z,2.43
2023-03-02T08:21:57.545Z,2.45
2023-03-02T08:23:00.398Z,2.47
2023-03-02T08:24:03.668Z,2.49
2023-03-02T08:25:07.471Z,2.51
2023-03-02T08:26:13.517Z,2.52
2023-03-02T08:27:17.194Z,2.52
2023-03-02T08:28:21.128Z,2.53
2023-03-02T08:29:24.794Z,2.53
2023-03-02T08:30:27.745Z,2.54
2023-03-02T08:31:30.908Z,2.54
2023-03-02T08:32:34.922Z,2.54
2023-03-02T08:33:38.234Z,2.55
2023-03-02T08:34:41.143Z,2.54
2023-03-02T08:35:44.237Z,2.54
2023-03-02T08:36:47.129Z,2.55
2023-03-02T08:37:50.012Z,2.57
2023-03-02T08:38:54.644Z,2.58
2023-03-02T08:39:58.791Z,2.61
2023-03-02T08:41:12.843Z,2.61
2023-03-02T08:42:16.397Z,2.64
2023-03-02T08:43:20.560Z,2.65
2023-03-02T08:44:23.569Z,2.64
2023-03-02T08:45:26.568Z,2.69
2023-03-02T08:46:30.580Z,2.68
2023-03-02T08:47:33.434Z,2.70
2023-03-02T08:48:36.315Z,2.73
2023-03-02T08:49:39.316Z,2.74
2023-03-02T08:50:42.173Z,2.74
2023-03-02T08:51:46.376Z,2.75
2023-03-02T08:52:49.258Z,2.74
2023-03-02T08:53:55.498Z,2.74
2023-03-02T08:54:58.498Z,2.72
2023-03-02T08:56:01.800Z,2.69
2023-03-02T08:57:04.648Z,2.73
2023-03-02T08:58:07.467Z,2.72
2023-03-02T08:59:13.195Z,2.77
2023-03-02T09:00:16.640Z,2.80
2023-03-02T09:01:22.449Z,2.80
2023-03-02T09:02:25.350Z,2.87
2023-03-02T09:03:28.540Z,2.87
2023-03-02T09:04:31.721Z,2.89
2023-03-02T09:05:35.853Z,2.90
2023-03-02T09:06:41.945Z,2.95
2023-03-02T09:07:45.304Z,2.96
2023-03-02T09:08:48.309Z,2.95
2023-03-02T09:09:51.267Z,2.96
2023-03-02T09:10:54.146Z,2.99
2023-03-02T09:11:57.308Z,3.01
2023-03-02T09:13:00.156Z,3.03
2023-03-02T09:14:03.561Z,3.04
2023-03-02T09:15:06.956Z,3.09
2023-03-02T09:16:10.780Z,3.06
2023-03-02T09:17:16.090Z,3.12
2023-03-02T09:18:18.972Z,3.15
2023-03-02T09:19:21.845Z,3.18
2023-03-02T09:20:24.718Z,3.18
2023-03-02T09:21:27.621Z,3.21
2023-03-02T09:22:31.322Z,3.23
2023-03-02T09:23:36.592Z,3.23
2023-03-02T09:24:39.478Z,3.26
2023-03-02T09:25:43.721Z,3.31
2023-03-02T09:26:47.576Z,3.34
2023-03-02T09:27:50.427Z,3.38
2023-03-02T09:28:53.339Z,3.38
2023-03-02T09:29:57.320Z,3.42
2023-03-02T09:31:03.349Z,3.40
2023-03-02T09:32:06.282Z,3.43
2023-03-02T09:33:09.271Z,3.42
2023-03-02T09:34:12.171Z,3.38
2023-03-02T09:35:15.322Z,3.40
2023-03-02T09:36:22.946Z,3.42
2023-03-02T09:37:27.747Z,3.46
2023-03-02T09:38:30.612Z,3.46
2023-03-02T09:39:33.593Z,3.47
2023-03-02T09:40:47.348Z,3.50
2023-03-02T09:42:14.214Z,3.49
2023-03-02T09:43:24.557Z,3.56
2023-03-02T09:44:51.996Z,3.53
2023-03-02T09:46:19.639Z,3.59
2023-03-02T09:48:01.520Z,3.64
2023-03-02T09:49:15.037Z,3.66
2023-03-02T09:50:34.947Z,3.77
2023-03-02T09:51:46.856Z,3.77
2023-03-02T09:53:09.247Z,3.81
2023-03-02T09:54:24.646Z,3.86
2023-03-02T09:55:32.356Z,3.88
2023-03-02T09:56:47.600Z,3.86
2023-03-02T09:57:51.413Z,3.90
2023-03-02T09:59:01.144Z,3.89
2023-03-02T10:00:18.351Z,3.91
2023-03-02T10:01:32.915Z,3.95
2023-03-02T10:02:43.080Z,3.95
2023-03-02T10:04:03.737Z,4.03
2023-03-02T10:05:38.233Z,4.06
2023-03-02T10:06:41.268Z,4.10
2023-03-02T10:07:46.333Z,4.10
2023-03-02T10:08:50.972Z,4.10
2023-03-02T10:09:56.039Z,4.10
2023-03-02T10:11:42.980Z,4.14
2023-03-02T10:13:23.281Z,4.11
2023-03-02T10:14:56.276Z,4.14
2023-03-02T10:15:59.168Z,4.24
2023-03-02T10:17:18.558Z,4.27
2023-03-02T10:18:34.538Z,4.31
2023-03-02T10:19:54.510Z,4.34
2023-03-02T10:21:05.965Z,4.37
2023-03-02T10:22:43.432Z,4.40
2023-03-02T10:24:24.487Z,4.38
2023-03-02T10:25:38.148Z,4.41
2023-03-02T10:26:53.365Z,4.51
2023-03-02T10:28:13.678Z,4.53
2023-03-02T10:29:41.366Z,4.61
2023-03-02T10:30:46.976Z,4.64
2023-03-02T10:31:55.750Z,4.66
2023-03-02T10:33:04.421Z,4.67
2023-03-02T10:34:13.907Z,4.74
2023-03-02T10:35:25.198Z,4.76
2023-03-02T10:36:31.326Z,4.78
2023-03-02T10:37:34.240Z,4.83
2023-03-02T10:38:38.128Z,4.83
2023-03-02T10:39:41.863Z,4.89
2023-03-02T10:40:50.848Z,4.89
2023-03-02T10:42:00.820Z,4.90
2023-03-02T10:43:05.769Z,4.91
2023-03-02T10:44:25.417Z,4.90
2023-03-02T10:45:29.761Z,4.93
2023-03-02T10:46:41.301Z,4.93
2023-03-02T10:47:44.308Z,4.96
2023-03-02T10:48:59.745Z,4.96
2023-03-02T10:50:02.787Z,5.02
2023-03-02T10:51:05.745Z,5.05
2023-03-02T10:52:08.542Z,5.04
2023-03-02T10:53:18.858Z,5.03
2023-03-02T10:54:21.648Z,5.05
2023-03-02T10:55:25.354Z,5.05
2023-03-02T10:56:30.160Z,5.03
2023-03-02T10:57:42.661Z,5.03
2023-03-02T10:58:45.812Z,5.07
2023-03-02T10:59:51.561Z,5.07
2023-03-02T11:01:06.194Z,5.13
2023-03-02T11:02:14.922Z,5.13
2023-03-02T11:03:22.900Z,5.12
2023-03-02T11:04:26.014Z,5.12
2023-03-02T11:05:40.072Z,5.08
2023-03-02T11:06:43.402Z,5.09
2023-03-02T11:07:56.994Z,5.08
2023-03-02T11:09:06.213Z,5.09
2023-03-02T11:10:24.616Z,5.11
2023-03-02T11:11:27.758Z,5.11
2023-03-02T11:12:32.513Z,5.11
2023-03-02T11:13:37.805Z,5.11
2023-03-02T11:14:40.860Z,5.11
2023-03-02T11:15:46.962Z,5.11
2023-03-02T11:16:52.480Z,5.11
2023-03-02T11:18:07.207Z,5.16
2023-03-02T11:19:35.221Z,5.15
2023-03-02T11:20:42.712Z,5.19
2023-03-02T11:22:26.624Z,5.19
2023-03-02T11:23:54.327Z,5.16
2023-03-02T11:24:59.769Z,5.24
2023-03-02T11:26:10.297Z,5.21
2023-03-02T11:27:20.174Z,5.26
2023-03-02T11:29:11.325Z,5.27
2023-03-02T11:30:19.099Z,5.26
2023-03-02T11:31:29.022Z,5.29
2023-03-02T11:32:37.481Z,5.28
2023-03-02T11:33:56.197Z,5.30
2023-03-02T11:35:08.772Z,5.28
2023-03-02T11:36:17.731Z,5.30
2023-03-02T11:37:34.852Z,5.31
2023-03-02T11:38:48.939Z,5.32
2023-03-02T11:40:29.920Z,5.35
2023-03-02T11:41:34.676Z,5.34
2023-03-02T11:42:41.245Z,5.42
2023-03-02T11:43:44.113Z,5.44
2023-03-02T11:44:48.724Z,5.44
2023-03-02T11:46:14.011Z,5.49
2023-03-02T11:47:23.637Z,5.50
2023-03-02T11:48:29.849Z,5.53
2023-03-02T11:49:45.427Z,5.60
2023-03-02T11:51:22.143Z,5.53
2023-03-02T11:52:28.366Z,5.53
2023-03-02T11:53:42.775Z,5.57
2023-03-02T11:54:52.958Z,5.59
2023-03-02T11:55:56.109Z,5.59
2023-03-02T11:56:59.053Z,5.64
2023-03-02T11:58:04.730Z,5.64
2023-03-02T11:59:16.566Z,5.65
2023-03-02T12:00:35.873Z,5.69
2023-03-02T12:01:40.463Z,5.71
2023-03-02T12:02:43.619Z,5.72
2023-03-02T12:03:47.831Z,5.75
2023-03-02T12:05:05.741Z,5.76
2023-03-02T12:06:14.301Z,5.80
2023-03-02T12:07:23.685Z,5.81
2023-03-02T12:08:40.346Z,5.81
2023-03-02T12:09:43.502Z,5.85
2023-03-02T12:11:06.856Z,5.84
2023-03-02T12:12:25.990Z,5.89
2023-03-02T12:13:39.548Z,5.90
2023-03-02T12:14:43.400Z,5.94
2023-03-02T12:15:48.175Z,5.96
2023-03-02T12:16:52.243Z,5.98
2023-03-02T12:17:55.417Z,6.00
2023-03-02T12:18:58.364Z,6.02
2023-03-02T12:20:07.458Z,6.03
2023-03-02T12:21:13.852Z,6.06
2023-03-02T12:22:27.928Z,6.09
2023-03-02T12:23:33.190Z,6.11
2023-03-02T12:24:42.070Z,6.11
2023-03-02T12:25:51.458Z,6.10
2023-03-02T12:27:05.520Z,6.09
2023-03-02T12:28:26.354Z,6.13
2023-03-02T12:29:45.588Z,6.11
2023-03-02T12:31:07.816Z,6.16
2023-03-02T12:32:19.766Z,6.16
2023-03-02T12:33:22.802Z,6.18
2023-03-02T12:34:34.250Z,6.18
2023-03-02T12:35:38.576Z,6.24
2023-03-02T12:36:44.108Z,6.28
2023-03-02T12:37:49.097Z,6.31
2023-03-02T12:39:25.260Z,6.25
2023-03-02T12:40:49.800Z,6.23
2023-03-02T12:42:20.329Z,6.30
2023-03-02T12:43:44.058Z,6.25
2023-03-02T12:44:52.686Z,6.26
2023-03-02T12:45:58.582Z,6.27
2023-03-02T12:47:03.086Z,6.29
2023-03-02T12:48:24.106Z,6.31
2023-03-02T12:49:30.003Z,6.31
2023-03-02T12:50:37.858Z,6.31
2023-03-02T12:51:48.631Z,6.28
2023-03-02T12:53:07.173Z,6.26
2023-03-02T12:54:18.612Z,6.24
2023-03-02T12:55:21.460Z,6.22
2023-03-02T12:56:25.921Z,6.22
2023-03-02T12:57:29.299Z,6.20
2023-03-02T12:58:34.106Z,6.18
2023-03-02T12:59:37.130Z,6.16
2023-03-02T13:00:40.053Z,6.15
2023-03-02T13:01:43.298Z,6.13
2023-03-02T13:02:51.883Z,6.16
2023-03-02T13:03:55.860Z,6.21
2023-03-02T13:05:00.285Z,6.15
2023-03-02T13:06:05.427Z,6.10
2023-03-02T13:07:17.190Z,6.07
2023-03-02T13:08:25.394Z,6.09
2023-03-02T13:09:29.355Z,6.10
2023-03-02T13:10:40.500Z,6.05
2023-03-02T13:11:44.400Z,6.05
2023-03-02T13:12:47.435Z,6.01
2023-03-02T13:13:50.465Z,5.98
2023-03-02T13:14:56.869Z,5.96
2023-03-02T13:16:02.927Z,5.95
2023-03-02T13:17:05.852Z,5.91
2023-03-02T13:18:12.266Z,5.85
2023-03-02T13:19:18.398Z,5.80
2023-03-02T13:20:22.696Z,5.79
2023-03-02T13:21:34.259Z,5.76
2023-03-02T13:22:37.228Z,5.76
2023-03-02T13:23:50.269Z,5.74
2023-03-02T13:25:02.340Z,5.73
2023-03-02T13:26:05.983Z,5.73
2023-03-02T13:27:17.003Z,5.69
2023-03-02T13:28:27.697Z,5.65
2023-03-02T13:29:31.970Z,5.60
2023-03-02T13:30:37.885Z,5.55
2023-03-02T13:31:40.892Z,5.58
2023-03-02T13:32:43.891Z,5.57
2023-03-02T13:33:50.398Z,5.56
2023-03-02T13:34:58.970Z,5.54
2023-03-02T13:36:02.146Z,5.56
2023-03-02T13:37:40.620Z,5.53
2023-03-02T13:38:49.335Z,5.49
2023-03-02T13:39:57.376Z,5.44
2023-03-02T13:41:02.207Z,5.41
2023-03-02T13:42:05.148Z,5.39
2023-03-02T13:43:26.406Z,5.38
2023-03-02T13:44:34.287Z,5.36
2023-03-02T13:45:37.904Z,5.34
2023-03-02T13:46:42.305Z,5.31
2023-03-02T13:47:45.344Z,5.30
2023-03-02T13:49:14.684Z,5.27
2023-03-02T13:50:22.253Z,5.26
2023-03-02T13:51:27.746Z,5.24
2023-03-02T13:52:31.206Z,5.23
2023-03-02T13:53:38.095Z,5.19
2023-03-02T13:54:43.917Z,5.20
2023-03-02T13:55:47.587Z,5.18
2023-03-02T13:56:51.402Z,5.14
2023-03-02T13:57:55.841Z,5.17
2023-03-02T13:58:58.882Z,5.16
2023-03-02T14:00:01.785Z,5.18
2023-03-02T14:01:06.415Z,5.20
2023-03-02T14:02:23.505Z,5.21
2023-03-02T14:03:29.650Z,5.25
2023-03-02T14:04:32.571Z,5.22
2023-03-02T14:05:35.555Z,5.21
2023-03-02T14:06:38.626Z,5.23
2023-03-02T14:07:41.503Z,5.22
2023-03-02T14:08:46.419Z,5.23
2023-03-02T14:09:49.495Z,5.22
2023-03-02T14:10:55.173Z,5.18
2023-03-02T14:11:58.682Z,5.18
2023-03-02T14:13:14.309Z,5.17
2023-03-02T14:14:21.114Z,5.17
2023-03-02T14:15:24.831Z,5.16
2023-03-02T14:16:28.199Z,5.10
2023-03-02T14:17:31.120Z,5.10
2023-03-02T14:18:41.361Z,5.12
2023-03-02T14:19:44.219Z,5.13
2023-03-02T14:20:47.114Z,5.07
2023-03-02T14:21:49.972Z,5.04
2023-03-02T14:22:52.883Z,5.01
2023-03-02T14:23:56.042Z,4.98
2023-03-02T14:24:59.008Z,4.99
2023-03-02T14:26:04.654Z,4.94
2023-03-02T14:27:09.945Z,4.93
2023-03-02T14:28:19.980Z,4.93
2023-03-02T14:29:25.370Z,4.95
2023-03-02T14:30:28.247Z,4.93
2023-03-02T14:31:31.520Z,4.90
2023-03-02T14:32:34.848Z,4.91
2023-03-02T14:33:37.994Z,4.87
2023-03-02T14:34:41.784Z,4.83
2023-03-02T14:35:44.893Z,4.84
2023-03-02T14:36:54.068Z,4.82
2023-03-02T14:37:57.035Z,4.82
2023-03-02T14:39:03.572Z,4.78
2023-03-02T14:40:18.844Z,4.79
2023-03-02T14:41:25.467Z,4.78